sensor_id;sensor_type;location;lat;lon;timestamp;temperature;humidity
75372;HTU21D;63956;52.006;5.878;2023-04-22T00:00:59;10.14;72.96
75372;HTU21D;63956;52.006;5.878;2023-04-22T00:03:28;10.06;73.03
75372;HTU21D;63956;52.006;5.878;2023-04-22T00:05:57;9.99;73.20
75372;HTU21D;63956;52.006;5.878;2023-04-22T00:08:26;9.99;73.15
75372;HTU21D;63956;52.006;5.878;2023-04-22T00:10:55;9.96;73.11
75372;HTU21D;63956;52.006;5.878;2023-04-22T00:13:25;9.94;73.18
75372;HTU21D;63956;52.006;5.878;2023-04-22T00:15:54;9.91;73.22
75372;HTU21D;63956;52.006;5.878;2023-04-22T00:18:25;9.90;73.17
75372;HTU21D;63956;52.006;5.878;2023-04-22T00:20:54;9.83;73.15
75372;HTU21D;63956;52.006;5.878;2023-04-22T00:23:24;9.79;73.26
75372;HTU21D;63956;52.006;5.878;2023-04-22T00:25:53;9.76;73.35
75372;HTU21D;63956;52.006;5.878;2023-04-22T00:28:22;9.74;73.30
75372;HTU21D;63956;52.006;5.878;2023-04-22T00:30:51;9.74;73.24
75372;HTU21D;63956;52.006;5.878;2023-04-22T00:33:20;9.70;73.23
75372;HTU21D;63956;52.006;5.878;2023-04-22T00:35:52;9.66;73.31
75372;HTU21D;63956;52.006;5.878;2023-04-22T00:38:22;9.63;73.36
75372;HTU21D;63956;52.006;5.878;2023-04-22T00:40:51;9.61;73.44
75372;HTU21D;63956;52.006;5.878;2023-04-22T00:43:20;9.57;73.48
75372;HTU21D;63956;52.006;5.878;2023-04-22T00:45:49;9.57;73.53
75372;HTU21D;63956;52.006;5.878;2023-04-22T00:48:18;9.56;73.62
75372;HTU21D;63956;52.006;5.878;2023-04-22T00:50:48;9.56;73.61
75372;HTU21D;63956;52.006;5.878;2023-04-22T00:53:20;9.59;73.61
75372;HTU21D;63956;52.006;5.878;2023-04-22T00:55:49;9.59;73.57
75372;HTU21D;63956;52.006;5.878;2023-04-22T00:58:20;9.60;73.58
75372;HTU21D;63956;52.006;5.878;2023-04-22T01:00:51;9.62;73.57
75372;HTU21D;63956;52.006;5.878;2023-04-22T01:03:20;9.64;73.59
75372;HTU21D;63956;52.006;5.878;2023-04-22T01:05:52;9.66;73.55
75372;HTU21D;63956;52.006;5.878;2023-04-22T01:08:27;9.69;73.58
75372;HTU21D;63956;52.006;5.878;2023-04-22T01:10:56;9.70;73.55
75372;HTU21D;63956;52.006;5.878;2023-04-22T01:13:25;9.71;73.58
75372;HTU21D;63956;52.006;5.878;2023-04-22T01:15:55;9.74;73.61
75372;HTU21D;63956;52.006;5.878;2023-04-22T01:18:25;9.75;73.58
75372;HTU21D;63956;52.006;5.878;2023-04-22T01:20:55;9.76;73.54
75372;HTU21D;63956;52.006;5.878;2023-04-22T01:23:27;9.75;73.59
75372;HTU21D;63956;52.006;5.878;2023-04-22T01:25:57;9.75;73.56
75372;HTU21D;63956;52.006;5.878;2023-04-22T01:28:26;9.74;73.61
75372;HTU21D;63956;52.006;5.878;2023-04-22T01:30:55;9.72;73.65
75372;HTU21D;63956;52.006;5.878;2023-04-22T01:33:24;9.74;73.70
75372;HTU21D;63956;52.006;5.878;2023-04-22T01:35:54;9.72;73.74
75372;HTU21D;63956;52.006;5.878;2023-04-22T01:38:23;9.72;73.77
75372;HTU21D;63956;52.006;5.878;2023-04-22T01:40:56;9.74;73.76
75372;HTU21D;63956;52.006;5.878;2023-04-22T01:43:25;9.76;73.69
75372;HTU21D;63956;52.006;5.878;2023-04-22T01:45:56;9.75;73.70
75372;HTU21D;63956;52.006;5.878;2023-04-22T01:48:26;9.76;73.70
75372;HTU21D;63956;52.006;5.878;2023-04-22T01:50:55;9.74;73.71
75372;HTU21D;63956;52.006;5.878;2023-04-22T01:53:25;9.74;73.78
75372;HTU21D;63956;52.006;5.878;2023-04-22T01:55:58;9.76;73.90
75372;HTU21D;63956;52.006;5.878;2023-04-22T01:58:28;9.79;73.98
75372;HTU21D;63956;52.006;5.878;2023-04-22T02:00:57;9.82;73.94
75372;HTU21D;63956;52.006;5.878;2023-04-22T02:03:26;9.85;73.70
75372;HTU21D;63956;52.006;5.878;2023-04-22T02:05:55;9.85;73.79
75372;HTU21D;63956;52.006;5.878;2023-04-22T02:08:24;9.86;73.70
75372;HTU21D;63956;52.006;5.878;2023-04-22T02:10:53;9.84;73.74
75372;HTU21D;63956;52.006;5.878;2023-04-22T02:13:25;9.84;73.83
75372;HTU21D;63956;52.006;5.878;2023-04-22T02:15:55;9.85;73.99
75372;HTU21D;63956;52.006;5.878;2023-04-22T02:18:24;9.89;73.81
75372;HTU21D;63956;52.006;5.878;2023-04-22T02:20:52;9.90;73.99
75372;HTU21D;63956;52.006;5.878;2023-04-22T02:23:21;9.95;73.80
75372;HTU21D;63956;52.006;5.878;2023-04-22T02:25:52;9.94;73.99
75372;HTU21D;63956;52.006;5.878;2023-04-22T02:28:22;9.99;74.15
75372;HTU21D;63956;52.006;5.878;2023-04-22T02:30:53;10.01;74.22
75372;HTU21D;63956;52.006;5.878;2023-04-22T02:33:23;10.06;74.28
75372;HTU21D;63956;52.006;5.878;2023-04-22T02:35:52;10.08;74.38
75372;HTU21D;63956;52.006;5.878;2023-04-22T02:38:22;10.12;74.47
75372;HTU21D;63956;52.006;5.878;2023-04-22T02:40:51;10.16;74.49
75372;HTU21D;63956;52.006;5.878;2023-04-22T02:43:20;10.21;74.50
75372;HTU21D;63956;52.006;5.878;2023-04-22T02:45:53;10.25;74.52
75372;HTU21D;63956;52.006;5.878;2023-04-22T02:48:23;10.26;74.58
75372;HTU21D;63956;52.006;5.878;2023-04-22T02:50:52;10.33;74.28
75372;HTU21D;63956;52.006;5.878;2023-04-22T02:53:21;10.33;74.46
75372;HTU21D;63956;52.006;5.878;2023-04-22T02:55:50;10.37;74.30
75372;HTU21D;63956;52.006;5.878;2023-04-22T02:58:20;10.35;74.36
75372;HTU21D;63956;52.006;5.878;2023-04-22T03:00:53;10.35;74.55
75372;HTU21D;63956;52.006;5.878;2023-04-22T03:03:23;10.37;74.64
75372;HTU21D;63956;52.006;5.878;2023-04-22T03:05:52;10.40;74.69
75372;HTU21D;63956;52.006;5.878;2023-04-22T03:08:23;10.42;74.76
75372;HTU21D;63956;52.006;5.878;2023-04-22T03:10:53;10.49;74.70
75372;HTU21D;63956;52.006;5.878;2023-04-22T03:13:22;10.51;74.74
75372;HTU21D;63956;52.006;5.878;2023-04-22T03:15:54;10.54;74.78
75372;HTU21D;63956;52.006;5.878;2023-04-22T03:18:23;10.56;74.81
75372;HTU21D;63956;52.006;5.878;2023-04-22T03:20:52;10.59;74.82
75372;HTU21D;63956;52.006;5.878;2023-04-22T03:23:22;10.62;74.79
75372;HTU21D;63956;52.006;5.878;2023-04-22T03:25:51;10.66;74.78
75372;HTU21D;63956;52.006;5.878;2023-04-22T03:28:22;10.68;74.85
75372;HTU21D;63956;52.006;5.878;2023-04-22T03:30:53;10.68;74.87
75372;HTU21D;63956;52.006;5.878;2023-04-22T03:33:23;10.69;74.89
75372;HTU21D;63956;52.006;5.878;2023-04-22T03:36:02;10.73;74.88
75372;HTU21D;63956;52.006;5.878;2023-04-22T03:38:31;10.73;74.96
75372;HTU21D;63956;52.006;5.878;2023-04-22T03:41:01;10.74;74.96
75372;HTU21D;63956;52.006;5.878;2023-04-22T03:43:38;10.78;74.89
75372;HTU21D;63956;52.006;5.878;2023-04-22T03:46:11;10.80;74.91
75372;HTU21D;63956;52.006;5.878;2023-04-22T03:48:46;10.82;74.87
75372;HTU21D;63956;52.006;5.878;2023-04-22T03:51:24;10.82;74.91
75372;HTU21D;63956;52.006;5.878;2023-04-22T03:53:54;10.83;74.89
75372;HTU21D;63956;52.006;5.878;2023-04-22T03:56:26;10.85;74.90
75372;HTU21D;63956;52.006;5.878;2023-04-22T03:58:59;10.84;74.92
75372;HTU21D;63956;52.006;5.878;2023-04-22T04:01:31;10.85;74.95
75372;HTU21D;63956;52.006;5.878;2023-04-22T04:04:05;10.86;74.96
75372;HTU21D;63956;52.006;5.878;2023-04-22T04:07:00;10.87;74.89
75372;HTU21D;63956;52.006;5.878;2023-04-22T04:09:29;10.87;74.88
75372;HTU21D;63956;52.006;5.878;2023-04-22T04:11:58;10.87;74.92
75372;HTU21D;63956;52.006;5.878;2023-04-22T04:14:32;10.87;74.95
75372;HTU21D;63956;52.006;5.878;2023-04-22T04:17:05;10.87;74.95
75372;HTU21D;63956;52.006;5.878;2023-04-22T04:19:35;10.89;74.91
75372;HTU21D;63956;52.006;5.878;2023-04-22T04:22:04;10.89;74.91
75372;HTU21D;63956;52.006;5.878;2023-04-22T04:24:39;10.90;74.94
75372;HTU21D;63956;52.006;5.878;2023-04-22T04:27:18;10.92;74.90
75372;HTU21D;63956;52.006;5.878;2023-04-22T04:29:52;10.93;74.91
75372;HTU21D;63956;52.006;5.878;2023-04-22T04:32:44;10.93;74.88
75372;HTU21D;63956;52.006;5.878;2023-04-22T04:35:15;10.92;74.92
75372;HTU21D;63956;52.006;5.878;2023-04-22T04:37:52;10.92;74.92
75372;HTU21D;63956;52.006;5.878;2023-04-22T04:40:22;10.93;74.94
75372;HTU21D;63956;52.006;5.878;2023-04-22T04:43:13;10.93;74.94
75372;HTU21D;63956;52.006;5.878;2023-04-22T04:45:48;10.93;74.97
75372;HTU21D;63956;52.006;5.878;2023-04-22T04:48:27;10.93;74.99
75372;HTU21D;63956;52.006;5.878;2023-04-22T04:51:05;10.95;74.83
75372;HTU21D;63956;52.006;5.878;2023-04-22T04:53:40;10.93;74.86
75372;HTU21D;63956;52.006;5.878;2023-04-22T04:56:10;10.94;74.91
75372;HTU21D;63956;52.006;5.878;2023-04-22T04:58:40;10.96;74.92
75372;HTU21D;63956;52.006;5.878;2023-04-22T05:01:19;10.96;74.92
75372;HTU21D;63956;52.006;5.878;2023-04-22T05:03:51;10.99;74.89
75372;HTU21D;63956;52.006;5.878;2023-04-22T05:06:21;11.00;74.88
75372;HTU21D;63956;52.006;5.878;2023-04-22T05:08:56;11.01;74.86
75372;HTU21D;63956;52.006;5.878;2023-04-22T05:11:25;11.01;74.94
75372;HTU21D;63956;52.006;5.878;2023-04-22T05:13:56;11.01;74.92
75372;HTU21D;63956;52.006;5.878;2023-04-22T05:16:33;11.00;74.92
75372;HTU21D;63956;52.006;5.878;2023-04-22T05:19:06;11.04;74.89
75372;HTU21D;63956;52.006;5.878;2023-04-22T05:21:35;11.05;74.92
75372;HTU21D;63956;52.006;5.878;2023-04-22T05:24:05;11.08;74.92
75372;HTU21D;63956;52.006;5.878;2023-04-22T05:26:35;11.10;74.86
75372;HTU21D;63956;52.006;5.878;2023-04-22T05:29:10;11.11;74.85
75372;HTU21D;63956;52.006;5.878;2023-04-22T05:31:39;11.12;74.88
75372;HTU21D;63956;52.006;5.878;2023-04-22T05:34:11;11.11;74.92
75372;HTU21D;63956;52.006;5.878;2023-04-22T05:36:41;11.13;74.93
75372;HTU21D;63956;52.006;5.878;2023-04-22T05:39:10;11.15;74.89
75372;HTU21D;63956;52.006;5.878;2023-04-22T05:41:39;11.16;74.89
75372;HTU21D;63956;52.006;5.878;2023-04-22T05:44:09;11.15;74.96
75372;HTU21D;63956;52.006;5.878;2023-04-22T05:46:39;11.18;74.94
75372;HTU21D;63956;52.006;5.878;2023-04-22T05:49:12;11.19;74.93
75372;HTU21D;63956;52.006;5.878;2023-04-22T05:52:16;11.22;74.87
75372;HTU21D;63956;52.006;5.878;2023-04-22T05:54:56;11.24;74.89
75372;HTU21D;63956;52.006;5.878;2023-04-22T05:57:26;11.24;74.93
75372;HTU21D;63956;52.006;5.878;2023-04-22T05:59:57;11.27;74.91
75372;HTU21D;63956;52.006;5.878;2023-04-22T06:02:28;11.28;74.95
75372;HTU21D;63956;52.006;5.878;2023-04-22T06:05:00;11.29;74.96
75372;HTU21D;63956;52.006;5.878;2023-04-22T06:07:29;11.31;74.94
75372;HTU21D;63956;52.006;5.878;2023-04-22T06:09:58;11.33;74.92
75372;HTU21D;63956;52.006;5.878;2023-04-22T06:12:28;11.36;74.96
75372;HTU21D;63956;52.006;5.878;2023-04-22T06:14:58;11.38;74.96
75372;HTU21D;63956;52.006;5.878;2023-04-22T06:17:27;11.40;74.94
75372;HTU21D;63956;52.006;5.878;2023-04-22T06:19:59;11.42;74.99
75372;HTU21D;63956;52.006;5.878;2023-04-22T06:22:30;11.47;74.93
75372;HTU21D;63956;52.006;5.878;2023-04-22T06:24:59;11.49;74.91
75372;HTU21D;63956;52.006;5.878;2023-04-22T06:27:28;11.51;74.96
75372;HTU21D;63956;52.006;5.878;2023-04-22T06:29:58;11.53;74.99
75372;HTU21D;63956;52.006;5.878;2023-04-22T06:32:31;11.55;75.01
75372;HTU21D;63956;52.006;5.878;2023-04-22T06:35:03;11.58;75.03
75372;HTU21D;63956;52.006;5.878;2023-04-22T06:37:32;11.60;75.01
75372;HTU21D;63956;52.006;5.878;2023-04-22T06:40:06;11.61;75.02
75372;HTU21D;63956;52.006;5.878;2023-04-22T06:42:54;11.62;75.00
75372;HTU21D;63956;52.006;5.878;2023-04-22T06:45:39;11.62;75.05
75372;HTU21D;63956;52.006;5.878;2023-04-22T06:48:31;11.62;75.07
75372;HTU21D;63956;52.006;5.878;2023-04-22T06:51:22;11.66;75.13
75372;HTU21D;63956;52.006;5.878;2023-04-22T06:53:51;11.68;75.25
75372;HTU21D;63956;52.006;5.878;2023-04-22T06:56:20;11.73;75.26
75372;HTU21D;63956;52.006;5.878;2023-04-22T06:58:49;11.77;75.25
75372;HTU21D;63956;52.006;5.878;2023-04-22T07:01:19;11.82;75.27
75372;HTU21D;63956;52.006;5.878;2023-04-22T07:03:48;11.87;75.28
75372;HTU21D;63956;52.006;5.878;2023-04-22T07:06:18;11.92;75.30
75372;HTU21D;63956;52.006;5.878;2023-04-22T07:08:50;12.00;75.35
75372;HTU21D;63956;52.006;5.878;2023-04-22T07:11:20;12.11;75.33
75372;HTU21D;63956;52.006;5.878;2023-04-22T07:14:21;12.19;75.31
75372;HTU21D;63956;52.006;5.878;2023-04-22T07:16:50;12.29;75.31
75372;HTU21D;63956;52.006;5.878;2023-04-22T07:19:20;12.36;75.32
75372;HTU21D;63956;52.006;5.878;2023-04-22T07:21:49;12.46;75.30
75372;HTU21D;63956;52.006;5.878;2023-04-22T07:24:21;12.55;75.38
75372;HTU21D;63956;52.006;5.878;2023-04-22T07:26:50;12.63;75.41
75372;HTU21D;63956;52.006;5.878;2023-04-22T07:29:19;12.73;75.40
75372;HTU21D;63956;52.006;5.878;2023-04-22T07:31:48;12.84;75.35
75372;HTU21D;63956;52.006;5.878;2023-04-22T07:34:17;12.91;75.28
75372;HTU21D;63956;52.006;5.878;2023-04-22T07:36:46;12.97;75.39
75372;HTU21D;63956;52.006;5.878;2023-04-22T07:39:20;13.03;75.29
75372;HTU21D;63956;52.006;5.878;2023-04-22T07:41:49;13.09;75.32
75372;HTU21D;63956;52.006;5.878;2023-04-22T07:44:18;13.15;75.28
75372;HTU21D;63956;52.006;5.878;2023-04-22T07:46:49;13.21;75.41
75372;HTU21D;63956;52.006;5.878;2023-04-22T07:49:19;13.27;75.41
75372;HTU21D;63956;52.006;5.878;2023-04-22T07:51:50;13.34;75.29
75372;HTU21D;63956;52.006;5.878;2023-04-22T07:54:21;13.39;75.31
75372;HTU21D;63956;52.006;5.878;2023-04-22T07:56:51;13.44;75.23
75372;HTU21D;63956;52.006;5.878;2023-04-22T07:59:20;13.47;75.21
75372;HTU21D;63956;52.006;5.878;2023-04-22T08:01:49;13.48;75.20
75372;HTU21D;63956;52.006;5.878;2023-04-22T08:04:20;13.49;75.22
75372;HTU21D;63956;52.006;5.878;2023-04-22T08:06:49;13.54;75.28
75372;HTU21D;63956;52.006;5.878;2023-04-22T08:09:22;13.61;75.18
75372;HTU21D;63956;52.006;5.878;2023-04-22T08:11:51;13.66;75.15
75372;HTU21D;63956;52.006;5.878;2023-04-22T08:14:21;13.73;75.04
75372;HTU21D;63956;52.006;5.878;2023-04-22T08:16:50;13.81;75.08
75372;HTU21D;63956;52.006;5.878;2023-04-22T08:19:20;13.92;75.00
75372;HTU21D;63956;52.006;5.878;2023-04-22T08:21:49;14.03;74.92
75372;HTU21D;63956;52.006;5.878;2023-04-22T08:24:18;14.13;74.76
75372;HTU21D;63956;52.006;5.878;2023-04-22T08:26:50;14.26;74.92
75372;HTU21D;63956;52.006;5.878;2023-04-22T08:29:19;14.37;74.71
75372;HTU21D;63956;52.006;5.878;2023-04-22T08:31:48;14.47;74.85
75372;HTU21D;63956;52.006;5.878;2023-04-22T08:34:17;14.56;74.76
75372;HTU21D;63956;52.006;5.878;2023-04-22T08:36:47;14.63;74.77
75372;HTU21D;63956;52.006;5.878;2023-04-22T08:39:16;14.69;74.60
75372;HTU21D;63956;52.006;5.878;2023-04-22T08:41:45;14.77;74.77
75372;HTU21D;63956;52.006;5.878;2023-04-22T08:44:18;14.85;74.57
75372;HTU21D;63956;52.006;5.878;2023-04-22T08:46:47;14.92;74.44
75372;HTU21D;63956;52.006;5.878;2023-04-22T08:49:17;14.98;74.35
75372;HTU21D;63956;52.006;5.878;2023-04-22T08:51:48;15.00;74.48
75372;HTU21D;63956;52.006;5.878;2023-04-22T08:54:18;15.06;74.25
75372;HTU21D;63956;52.006;5.878;2023-04-22T08:56:49;15.09;74.15
75372;HTU21D;63956;52.006;5.878;2023-04-22T08:59:21;15.14;74.12
75372;HTU21D;63956;52.006;5.878;2023-04-22T09:01:51;15.18;74.09
75372;HTU21D;63956;52.006;5.878;2023-04-22T09:04:21;15.28;74.02
75372;HTU21D;63956;52.006;5.878;2023-04-22T09:06:51;15.33;74.18
75372;HTU21D;63956;52.006;5.878;2023-04-22T09:09:20;15.42;74.44
75372;HTU21D;63956;52.006;5.878;2023-04-22T09:11:49;15.58;74.62
75372;HTU21D;63956;52.006;5.878;2023-04-22T09:14:21;15.71;73.83
75372;HTU21D;63956;52.006;5.878;2023-04-22T09:16:51;15.78;73.70
75372;HTU21D;63956;52.006;5.878;2023-04-22T09:19:23;15.86;73.78
75372;HTU21D;63956;52.006;5.878;2023-04-22T09:21:57;15.96;73.99
75372;HTU21D;63956;52.006;5.878;2023-04-22T09:24:26;16.06;74.55
75372;HTU21D;63956;52.006;5.878;2023-04-22T09:26:55;16.22;74.30
75372;HTU21D;63956;52.006;5.878;2023-04-22T09:29:31;16.40;73.78
75372;HTU21D;63956;52.006;5.878;2023-04-22T09:32:08;16.54;73.57
75372;HTU21D;63956;52.006;5.878;2023-04-22T09:34:47;16.64;73.38
75372;HTU21D;63956;52.006;5.878;2023-04-22T09:37:18;16.70;72.96
75372;HTU21D;63956;52.006;5.878;2023-04-22T09:39:49;16.76;72.76
75372;HTU21D;63956;52.006;5.878;2023-04-22T09:42:19;16.86;72.99
75372;HTU21D;63956;52.006;5.878;2023-04-22T09:44:51;16.99;72.77
75372;HTU21D;63956;52.006;5.878;2023-04-22T09:47:20;17.03;72.15
75372;HTU21D;63956;52.006;5.878;2023-04-22T09:49:51;17.05;71.75
75372;HTU21D;63956;52.006;5.878;2023-04-22T09:52:21;17.08;71.97
75372;HTU21D;63956;52.006;5.878;2023-04-22T09:54:53;17.11;71.74
75372;HTU21D;63956;52.006;5.878;2023-04-22T09:57:22;17.16;71.69
75372;HTU21D;63956;52.006;5.878;2023-04-22T09:59:57;17.22;71.66
75372;HTU21D;63956;52.006;5.878;2023-04-22T10:02:28;17.26;71.54
75372;HTU21D;63956;52.006;5.878;2023-04-22T10:04:57;17.35;71.35
75372;HTU21D;63956;52.006;5.878;2023-04-22T10:07:27;17.41;71.14
75372;HTU21D;63956;52.006;5.878;2023-04-22T10:09:57;17.46;70.79
75372;HTU21D;63956;52.006;5.878;2023-04-22T10:12:26;17.49;70.77
75372;HTU21D;63956;52.006;5.878;2023-04-22T10:14:58;17.51;70.45
75372;HTU21D;63956;52.006;5.878;2023-04-22T10:17:29;17.51;70.16
75372;HTU21D;63956;52.006;5.878;2023-04-22T10:19:59;17.55;70.62
75372;HTU21D;63956;52.006;5.878;2023-04-22T10:22:32;17.61;70.10
75372;HTU21D;63956;52.006;5.878;2023-04-22T10:25:02;17.67;70.17
75372;HTU21D;63956;52.006;5.878;2023-04-22T10:27:31;17.75;69.90
75372;HTU21D;63956;52.006;5.878;2023-04-22T10:30:04;17.80;69.85
75372;HTU21D;63956;52.006;5.878;2023-04-22T10:32:34;17.90;70.05
75372;HTU21D;63956;52.006;5.878;2023-04-22T10:35:08;17.98;69.71
75372;HTU21D;63956;52.006;5.878;2023-04-22T10:37:41;18.06;68.81
75372;HTU21D;63956;52.006;5.878;2023-04-22T10:40:14;18.10;68.63
75372;HTU21D;63956;52.006;5.878;2023-04-22T10:42:48;18.15;69.03
75372;HTU21D;63956;52.006;5.878;2023-04-22T10:45:23;18.26;68.87
75372;HTU21D;63956;52.006;5.878;2023-04-22T10:47:53;18.34;68.35
75372;HTU21D;63956;52.006;5.878;2023-04-22T10:50:23;18.39;68.28
75372;HTU21D;63956;52.006;5.878;2023-04-22T10:52:55;18.41;67.87
75372;HTU21D;63956;52.006;5.878;2023-04-22T10:55:28;18.42;67.63
75372;HTU21D;63956;52.006;5.878;2023-04-22T10:58:21;18.41;67.25
75372;HTU21D;63956;52.006;5.878;2023-04-22T11:00:52;18.36;67.55
75372;HTU21D;63956;52.006;5.878;2023-04-22T11:03:26;18.38;67.07
75372;HTU21D;63956;52.006;5.878;2023-04-22T11:06:14;18.39;66.99
75372;HTU21D;63956;52.006;5.878;2023-04-22T11:08:44;18.32;66.60
75372;HTU21D;63956;52.006;5.878;2023-04-22T11:11:16;18.30;66.93
75372;HTU21D;63956;52.006;5.878;2023-04-22T11:13:49;18.35;66.94
75372;HTU21D;63956;52.006;5.878;2023-04-22T11:16:20;18.35;66.51
75372;HTU21D;63956;52.006;5.878;2023-04-22T11:18:50;18.36;66.72
75372;HTU21D;63956;52.006;5.878;2023-04-22T11:21:20;18.38;66.49
75372;HTU21D;63956;52.006;5.878;2023-04-22T11:23:51;18.40;66.17
75372;HTU21D;63956;52.006;5.878;2023-04-22T11:26:32;18.42;66.30
75372;HTU21D;63956;52.006;5.878;2023-04-22T11:29:05;18.43;66.11
75372;HTU21D;63956;52.006;5.878;2023-04-22T11:31:34;18.44;66.18
75372;HTU21D;63956;52.006;5.878;2023-04-22T11:34:03;18.46;66.25
75372;HTU21D;63956;52.006;5.878;2023-04-22T11:36:33;18.43;66.36
75372;HTU21D;63956;52.006;5.878;2023-04-22T11:39:07;18.40;66.15
75372;HTU21D;63956;52.006;5.878;2023-04-22T11:41:40;18.32;66.23
75372;HTU21D;63956;52.006;5.878;2023-04-22T11:44:13;18.25;66.01
75372;HTU21D;63956;52.006;5.878;2023-04-22T11:46:43;18.17;66.11
75372;HTU21D;63956;52.006;5.878;2023-04-22T11:49:13;18.12;65.73
75372;HTU21D;63956;52.006;5.878;2023-04-22T11:51:54;18.10;65.80
75372;HTU21D;63956;52.006;5.878;2023-04-22T11:54:30;18.03;65.62
75372;HTU21D;63956;52.006;5.878;2023-04-22T11:57:02;17.95;65.52
75372;HTU21D;63956;52.006;5.878;2023-04-22T11:59:34;17.90;65.47
75372;HTU21D;63956;52.006;5.878;2023-04-22T12:02:06;17.84;65.25
75372;HTU21D;63956;52.006;5.878;2023-04-22T12:04:37;17.78;65.28
75372;HTU21D;63956;52.006;5.878;2023-04-22T12:07:06;17.74;65.20
75372;HTU21D;63956;52.006;5.878;2023-04-22T12:09:35;17.67;65.22
75372;HTU21D;63956;52.006;5.878;2023-04-22T12:12:05;17.63;64.94
75372;HTU21D;63956;52.006;5.878;2023-04-22T12:14:37;17.59;65.16
75372;HTU21D;63956;52.006;5.878;2023-04-22T12:17:08;17.54;65.08
75372;HTU21D;63956;52.006;5.878;2023-04-22T12:19:38;17.50;65.45
75372;HTU21D;63956;52.006;5.878;2023-04-22T12:22:07;17.47;65.50
75372;HTU21D;63956;52.006;5.878;2023-04-22T12:24:36;17.43;65.42
75372;HTU21D;63956;52.006;5.878;2023-04-22T12:27:12;17.38;65.86
75372;HTU21D;63956;52.006;5.878;2023-04-22T12:29:50;17.39;65.90
75372;HTU21D;63956;52.006;5.878;2023-04-22T12:32:19;17.34;66.19
75372;HTU21D;63956;52.006;5.878;2023-04-22T12:34:49;17.33;66.27
75372;HTU21D;63956;52.006;5.878;2023-04-22T12:37:18;17.30;66.43
75372;HTU21D;63956;52.006;5.878;2023-04-22T12:39:47;17.28;66.48
75372;HTU21D;63956;52.006;5.878;2023-04-22T12:42:16;17.24;66.66
75372;HTU21D;63956;52.006;5.878;2023-04-22T12:44:48;17.23;66.76
75372;HTU21D;63956;52.006;5.878;2023-04-22T12:47:17;17.22;66.94
75372;HTU21D;63956;52.006;5.878;2023-04-22T12:49:46;17.22;67.04
75372;HTU21D;63956;52.006;5.878;2023-04-22T12:52:16;17.19;67.11
75372;HTU21D;63956;52.006;5.878;2023-04-22T12:54:46;17.21;67.15
75372;HTU21D;63956;52.006;5.878;2023-04-22T12:57:15;17.22;67.28
75372;HTU21D;63956;52.006;5.878;2023-04-22T12:59:44;17.21;67.38
75372;HTU21D;63956;52.006;5.878;2023-04-22T13:02:16;17.25;67.34
75372;HTU21D;63956;52.006;5.878;2023-04-22T13:04:45;17.26;67.24
75372;HTU21D;63956;52.006;5.878;2023-04-22T13:07:14;17.26;67.39
75372;HTU21D;63956;52.006;5.878;2023-04-22T13:09:43;17.29;67.60
75372;HTU21D;63956;52.006;5.878;2023-04-22T13:12:12;17.30;67.43
75372;HTU21D;63956;52.006;5.878;2023-04-22T13:14:42;17.31;67.51
75372;HTU21D;63956;52.006;5.878;2023-04-22T13:17:11;17.30;67.37
75372;HTU21D;63956;52.006;5.878;2023-04-22T13:19:42;17.26;67.42
75372;HTU21D;63956;52.006;5.878;2023-04-22T13:22:12;17.22;67.53
75372;HTU21D;63956;52.006;5.878;2023-04-22T13:24:41;17.20;67.68
75372;HTU21D;63956;52.006;5.878;2023-04-22T13:27:10;17.17;67.74
75372;HTU21D;63956;52.006;5.878;2023-04-22T13:29:40;17.15;67.93
75372;HTU21D;63956;52.006;5.878;2023-04-22T13:32:10;17.11;68.01
75372;HTU21D;63956;52.006;5.878;2023-04-22T13:34:43;17.10;68.17
75372;HTU21D;63956;52.006;5.878;2023-04-22T13:37:13;17.09;68.23
75372;HTU21D;63956;52.006;5.878;2023-04-22T13:39:44;17.09;68.36
75372;HTU21D;63956;52.006;5.878;2023-04-22T13:42:13;17.06;68.54
75372;HTU21D;63956;52.006;5.878;2023-04-22T13:44:42;17.01;68.58
75372;HTU21D;63956;52.006;5.878;2023-04-22T13:47:12;16.93;68.86
75372;HTU21D;63956;52.006;5.878;2023-04-22T13:49:44;16.90;68.93
75372;HTU21D;63956;52.006;5.878;2023-04-22T13:52:13;16.84;69.09
75372;HTU21D;63956;52.006;5.878;2023-04-22T13:54:42;16.78;69.32
75372;HTU21D;63956;52.006;5.878;2023-04-22T13:57:11;16.74;69.45
75372;HTU21D;63956;52.006;5.878;2023-04-22T13:59:40;16.72;69.55
75372;HTU21D;63956;52.006;5.878;2023-04-22T14:02:09;16.66;69.62
75372;HTU21D;63956;52.006;5.878;2023-04-22T14:04:39;16.62;69.84
75372;HTU21D;63956;52.006;5.878;2023-04-22T14:07:10;16.58;69.87
75372;HTU21D;63956;52.006;5.878;2023-04-22T14:09:40;16.57;70.07
75372;HTU21D;63956;52.006;5.878;2023-04-22T14:12:11;16.52;70.17
75372;HTU21D;63956;52.006;5.878;2023-04-22T14:14:42;16.47;70.19
75372;HTU21D;63956;52.006;5.878;2023-04-22T14:17:12;16.41;70.27
75372;HTU21D;63956;52.006;5.878;2023-04-22T14:19:43;16.36;70.46
75372;HTU21D;63956;52.006;5.878;2023-04-22T14:22:15;16.33;70.56
75372;HTU21D;63956;52.006;5.878;2023-04-22T14:24:44;16.32;70.68
75372;HTU21D;63956;52.006;5.878;2023-04-22T14:27:13;16.30;70.71
75372;HTU21D;63956;52.006;5.878;2023-04-22T14:29:43;16.26;70.78
75372;HTU21D;63956;52.006;5.878;2023-04-22T14:32:13;16.19;70.91
75372;HTU21D;63956;52.006;5.878;2023-04-22T14:34:43;16.18;71.02
75372;HTU21D;63956;52.006;5.878;2023-04-22T14:37:15;16.15;71.08
75372;HTU21D;63956;52.006;5.878;2023-04-22T14:39:44;16.14;71.17
75372;HTU21D;63956;52.006;5.878;2023-04-22T14:42:13;16.15;71.22
75372;HTU21D;63956;52.006;5.878;2023-04-22T14:44:43;16.17;71.27
75372;HTU21D;63956;52.006;5.878;2023-04-22T14:47:12;16.17;71.28
75372;HTU21D;63956;52.006;5.878;2023-04-22T14:49:41;16.18;71.32
75372;HTU21D;63956;52.006;5.878;2023-04-22T14:52:11;16.19;71.35
75372;HTU21D;63956;52.006;5.878;2023-04-22T14:54:42;16.20;71.36
75372;HTU21D;63956;52.006;5.878;2023-04-22T14:57:12;16.19;71.44
75372;HTU21D;63956;52.006;5.878;2023-04-22T14:59:41;16.22;71.51
75372;HTU21D;63956;52.006;5.878;2023-04-22T15:02:13;16.22;71.61
75372;HTU21D;63956;52.006;5.878;2023-04-22T15:04:43;16.20;71.61
75372;HTU21D;63956;52.006;5.878;2023-04-22T15:07:14;16.25;71.65
75372;HTU21D;63956;52.006;5.878;2023-04-22T15:09:46;16.24;71.70
75372;HTU21D;63956;52.006;5.878;2023-04-22T15:12:15;16.22;71.66
75372;HTU21D;63956;52.006;5.878;2023-04-22T15:14:44;16.20;71.74
75372;HTU21D;63956;52.006;5.878;2023-04-22T15:17:13;16.19;71.91
75372;HTU21D;63956;52.006;5.878;2023-04-22T15:19:43;16.17;71.87
75372;HTU21D;63956;52.006;5.878;2023-04-22T15:22:12;16.15;71.84
75372;HTU21D;63956;52.006;5.878;2023-04-22T15:24:41;16.13;71.88
75372;HTU21D;63956;52.006;5.878;2023-04-22T15:27:13;16.13;71.90
75372;HTU21D;63956;52.006;5.878;2023-04-22T15:29:42;16.08;72.09
75372;HTU21D;63956;52.006;5.878;2023-04-22T15:32:12;16.11;71.98
75372;HTU21D;63956;52.006;5.878;2023-04-22T15:34:41;16.11;72.00
75372;HTU21D;63956;52.006;5.878;2023-04-22T15:37:10;16.08;72.00
75372;HTU21D;63956;52.006;5.878;2023-04-22T15:39:39;16.07;72.00
75372;HTU21D;63956;52.006;5.878;2023-04-22T15:42:09;16.05;72.02